createdAt,value
2019-01-18T00:00:36.431Z,969.01
2019-01-18T00:01:36.664Z,969.09
2019-01-18T00:03:40.826Z,969.02
2019-01-18T00:04:41.056Z,969.04
2019-01-18T00:06:45.191Z,969.08
2019-01-18T00:07:45.425Z,969.04
2019-01-18T00:09:49.584Z,969.16
2019-01-18T00:10:49.815Z,969.11
2019-01-18T00:12:53.954Z,969.09
2019-01-18T00:13:54.188Z,969.04
2019-01-18T00:15:47.281Z,969.01
2019-01-18T00:16:47.512Z,969.13
2019-01-18T00:18:51.669Z,969.12
2019-01-18T00:19:51.904Z,969.19
2019-01-18T00:21:56.048Z,969.12
2019-01-18T00:22:56.280Z,969.14
2019-01-18T00:25:00.441Z,969.15
2019-01-18T00:26:00.671Z,969.14
2019-01-18T00:28:04.810Z,969.15
2019-01-18T00:29:05.047Z,969.24
2019-01-18T00:31:09.203Z,969.20
2019-01-18T00:32:09.436Z,969.19
2019-01-18T00:34:13.597Z,969.21
2019-01-18T00:35:13.831Z,969.28
2019-01-18T00:37:17.971Z,969.23
2019-01-18T00:38:18.203Z,969.27
2019-01-18T00:40:22.360Z,969.32
2019-01-18T00:41:22.593Z,969.34
2019-01-18T00:43:26.730Z,969.32
2019-01-18T00:44:26.962Z,969.37
2019-01-18T00:46:20.054Z,969.42
2019-01-18T00:47:20.287Z,969.43
2019-01-18T00:49:24.446Z,969.48
2019-01-18T00:50:24.677Z,969.55
2019-01-18T00:52:28.818Z,969.57
2019-01-18T00:53:29.051Z,969.54
2019-01-18T00:55:33.211Z,969.58
2019-01-18T00:56:33.444Z,969.55
2019-01-18T00:58:37.584Z,969.63
2019-01-18T00:59:37.816Z,969.66
2019-01-18T01:01:41.974Z,969.73
2019-01-18T01:02:42.204Z,969.74
2019-01-18T01:04:46.367Z,969.75
2019-01-18T01:05:46.593Z,969.75
2019-01-18T01:07:50.735Z,969.81
2019-01-18T01:08:50.966Z,969.84
2019-01-18T01:10:55.121Z,969.96
2019-01-18T01:11:55.354Z,969.94
2019-01-18T01:13:59.493Z,969.97
2019-01-18T01:14:59.726Z,970.02
2019-01-18T01:17:03.885Z,970.01
2019-01-18T01:18:04.117Z,970.04
2019-01-18T01:20:08.279Z,970.06
2019-01-18T01:21:08.511Z,970.09
2019-01-18T01:23:12.649Z,970.11
2019-01-18T01:24:12.882Z,970.16
2019-01-18T01:26:05.970Z,970.16
2019-01-18T01:27:06.201Z,970.22
2019-01-18T01:29:10.340Z,970.28
2019-01-18T01:30:10.571Z,970.36
2019-01-18T01:32:14.729Z,970.38
2019-01-18T01:33:14.959Z,970.36
2019-01-18T01:35:19.125Z,970.38
2019-01-18T01:36:19.354Z,970.38
2019-01-18T01:38:23.518Z,970.37
2019-01-18T01:39:23.732Z,970.44
2019-01-18T01:41:27.891Z,970.46
2019-01-18T01:42:28.122Z,970.48
2019-01-18T01:44:32.262Z,970.54
2019-01-18T01:45:32.495Z,970.54
2019-01-18T01:47:36.653Z,970.58
2019-01-18T01:48:36.884Z,970.67
2019-01-18T01:50:41.044Z,970.61
2019-01-18T01:51:41.274Z,970.66
2019-01-18T01:53:45.412Z,970.68
2019-01-18T01:54:45.643Z,970.66
2019-01-18T01:56:49.800Z,970.73
2019-01-18T01:57:50.033Z,970.75
2019-01-18T01:59:54.174Z,970.77
2019-01-18T02:00:54.405Z,970.75
2019-01-18T02:02:58.566Z,970.78
2019-01-18T02:03:58.797Z,970.79
2019-01-18T02:05:51.902Z,970.80
2019-01-18T02:06:52.134Z,970.77
2019-01-18T02:08:56.276Z,970.80
2019-01-18T02:09:56.508Z,970.80
2019-01-18T02:12:00.673Z,970.84
2019-01-18T02:13:00.905Z,970.89
2019-01-18T02:15:05.052Z,970.90
2019-01-18T02:16:05.286Z,970.92
2019-01-18T02:18:09.449Z,970.92
2019-01-18T02:19:09.683Z,970.96
2019-01-18T02:21:13.844Z,971.05
2019-01-18T02:22:14.077Z,971.03
2019-01-18T02:24:18.216Z,971.01
2019-01-18T02:25:18.447Z,971.11
2019-01-18T02:27:22.612Z,971.14
2019-01-18T02:28:22.842Z,971.13
2019-01-18T02:30:26.981Z,971.28
2019-01-18T02:31:27.213Z,971.20
2019-01-18T02:33:31.375Z,971.36
2019-01-18T02:34:31.610Z,971.37
2019-01-18T02:36:24.673Z,971.37
2019-01-18T02:37:24.906Z,971.38
2019-01-18T02:39:29.067Z,971.48
2019-01-18T02:40:29.306Z,971.41
2019-01-18T02:42:33.461Z,971.50
2019-01-18T02:43:33.691Z,971.49
2019-01-18T02:45:37.830Z,971.48
2019-01-18T02:46:38.062Z,971.49
2019-01-18T02:48:42.222Z,971.59
2019-01-18T02:49:42.458Z,971.62
2019-01-18T02:51:46.591Z,971.66
2019-01-18T02:52:46.823Z,971.74
2019-01-18T02:54:50.992Z,971.73
2019-01-18T02:55:51.227Z,971.74
2019-01-18T02:57:55.384Z,971.80
2019-01-18T02:58:55.617Z,971.79
2019-01-18T03:00:59.755Z,971.85
2019-01-18T03:01:59.990Z,971.90
2019-01-18T03:04:04.155Z,971.88
2019-01-18T03:05:04.385Z,971.88
2019-01-18T03:07:08.524Z,971.93
2019-01-18T03:08:08.756Z,971.91
2019-01-18T03:10:12.918Z,971.94
2019-01-18T03:11:13.149Z,971.99
2019-01-18T03:13:17.309Z,972.00
2019-01-18T03:14:17.541Z,972.03
2019-01-18T03:16:10.610Z,972.07
2019-01-18T03:17:10.844Z,972.11
2019-01-18T03:19:15.013Z,972.11
2019-01-18T03:20:15.245Z,971.89
2019-01-18T03:22:19.393Z,972.14
2019-01-18T03:23:19.622Z,972.15
2019-01-18T03:25:23.782Z,972.18
2019-01-18T03:26:24.012Z,972.20
2019-01-18T03:28:28.185Z,972.12
2019-01-18T03:29:28.411Z,972.17
2019-01-18T03:31:32.554Z,972.21
2019-01-18T03:32:32.789Z,972.20
2019-01-18T03:34:36.952Z,972.22
2019-01-18T03:35:37.187Z,972.31
2019-01-18T03:37:41.327Z,972.34
2019-01-18T03:38:41.565Z,972.31
2019-01-18T03:40:45.731Z,972.28
2019-01-18T03:41:45.965Z,972.33
2019-01-18T03:43:50.126Z,972.29
2019-01-18T03:44:50.360Z,972.37
2019-01-18T03:46:54.503Z,972.41
2019-01-18T03:47:54.737Z,972.39
2019-01-18T03:49:58.910Z,972.42
2019-01-18T03:50:59.139Z,972.41
2019-01-18T03:53:03.284Z,972.41
2019-01-18T03:54:03.518Z,972.45
2019-01-18T03:55:56.610Z,972.50
2019-01-18T03:56:56.849Z,972.48
2019-01-18T03:59:01.012Z,972.46
2019-01-18T04:00:01.250Z,972.50
2019-01-18T04:02:05.390Z,972.46
2019-01-18T04:03:05.627Z,972.51
2019-01-18T04:05:09.785Z,972.52
2019-01-18T04:06:10.019Z,972.50
2019-01-18T04:08:14.158Z,972.59
2019-01-18T04:09:14.393Z,972.54
2019-01-18T04:11:18.548Z,972.58
2019-01-18T04:12:18.780Z,972.57
2019-01-18T04:14:22.941Z,972.73
2019-01-18T04:15:23.174Z,972.69
2019-01-18T04:17:27.316Z,972.77
2019-01-18T04:18:27.545Z,972.81
2019-01-18T04:20:31.710Z,972.91
2019-01-18T04:21:31.944Z,972.93
2019-01-18T04:23:36.090Z,973.01
2019-01-18T04:24:36.317Z,973.02
2019-01-18T04:26:40.477Z,973.07
2019-01-18T04:27:40.709Z,973.08
2019-01-18T04:29:44.870Z,973.12
2019-01-18T04:30:45.101Z,973.17
2019-01-18T04:32:49.242Z,973.17
2019-01-18T04:33:49.476Z,973.17
2019-01-18T04:35:42.570Z,973.17
2019-01-18T04:36:42.801Z,973.22
2019-01-18T04:38:46.941Z,973.21
2019-01-18T04:39:47.174Z,973.28
2019-01-18T04:41:51.340Z,973.34
2019-01-18T04:42:51.569Z,973.30
2019-01-18T04:44:55.725Z,973.36
2019-01-18T04:45:55.958Z,973.43
2019-01-18T04:48:00.106Z,973.38
2019-01-18T04:49:00.332Z,973.43
2019-01-18T04:51:04.494Z,973.54
2019-01-18T04:52:04.726Z,973.43
2019-01-18T04:54:08.863Z,973.54
2019-01-18T04:55:09.095Z,973.63
2019-01-18T04:57:13.257Z,973.63
2019-01-18T04:58:13.488Z,973.68
2019-01-18T05:00:17.652Z,973.66
2019-01-18T05:01:17.882Z,973.68
2019-01-18T05:03:22.021Z,973.70
2019-01-18T05:04:22.254Z,973.75
2019-01-18T05:06:15.340Z,973.81
2019-01-18T05:07:15.575Z,973.81
2019-01-18T05:09:19.717Z,973.86
2019-01-18T05:10:19.948Z,973.91
2019-01-18T05:12:24.112Z,973.91
2019-01-18T05:13:24.345Z,973.98
2019-01-18T05:15:28.511Z,974.09
2019-01-18T05:16:28.741Z,974.10
2019-01-18T05:18:32.879Z,974.18
2019-01-18T05:19:33.129Z,974.19
2019-01-18T05:21:37.284Z,974.28
2019-01-18T05:22:37.513Z,974.34
2019-01-18T05:24:49.070Z,974.30
2019-01-18T05:25:41.894Z,974.34
2019-01-18T05:27:46.053Z,974.45
2019-01-18T05:28:46.285Z,974.46
2019-01-18T05:30:50.447Z,974.49
2019-01-18T05:31:50.677Z,974.43
2019-01-18T05:33:54.815Z,974.48
2019-01-18T05:34:55.046Z,974.54
2019-01-18T05:36:59.208Z,974.61
2019-01-18T05:37:59.446Z,974.59
2019-01-18T05:40:03.581Z,974.56
2019-01-18T05:41:03.811Z,974.59
2019-01-18T05:43:07.970Z,974.62
2019-01-18T05:44:08.203Z,974.63
2019-01-18T05:46:01.274Z,974.65
2019-01-18T05:47:01.504Z,974.62
2019-01-18T05:49:05.667Z,974.71
2019-01-18T05:50:05.900Z,974.71
2019-01-18T05:52:10.062Z,974.69
2019-01-18T05:53:10.293Z,974.74
2019-01-18T05:55:14.437Z,974.78
2019-01-18T05:56:14.667Z,974.79
2019-01-18T05:58:18.838Z,974.84
2019-01-18T05:59:19.068Z,974.83
2019-01-18T06:01:23.335Z,974.93
2019-01-18T06:02:23.437Z,974.93
2019-01-18T06:04:27.603Z,974.92
2019-01-18T06:05:27.837Z,975.00
2019-01-18T06:07:31.995Z,975.02
2019-01-18T06:08:32.234Z,975.05
2019-01-18T06:10:36.361Z,975.12
2019-01-18T06:11:36.596Z,975.14
2019-01-18T06:13:40.763Z,975.23
2019-01-18T06:14:41.004Z,975.27
2019-01-18T06:16:45.167Z,975.28
2019-01-18T06:17:45.400Z,975.27
2019-01-18T06:19:49.540Z,975.36
2019-01-18T06:20:49.780Z,975.38
2019-01-18T06:22:53.943Z,975.41
2019-01-18T06:23:54.177Z,975.41
2019-01-18T06:25:47.248Z,975.41
2019-01-18T06:26:47.483Z,975.43
2019-01-18T06:28:51.654Z,975.48
2019-01-18T06:29:51.883Z,975.47
2019-01-18T06:31:56.037Z,975.48
2019-01-18T06:32:56.267Z,975.56
2019-01-18T06:35:00.437Z,975.55
2019-01-18T06:36:00.671Z,975.51
2019-01-18T06:38:04.835Z,975.56
2019-01-18T06:39:05.070Z,975.56
2019-01-18T06:41:09.216Z,975.58
2019-01-18T06:42:09.455Z,975.58
2019-01-18T06:44:13.626Z,975.61
2019-01-18T06:45:13.858Z,975.64
2019-01-18T06:47:18.039Z,975.65
2019-01-18T06:48:18.275Z,975.70
2019-01-18T06:50:22.420Z,975.71
2019-01-18T06:51:22.655Z,975.74
2019-01-18T06:53:26.820Z,975.78
2019-01-18T06:54:27.053Z,975.79
2019-01-18T06:56:20.123Z,975.82
2019-01-18T06:57:20.355Z,975.87
2019-01-18T06:59:24.519Z,975.91
2019-01-18T07:00:24.750Z,975.91
2019-01-18T07:02:28.924Z,975.98
2019-01-18T07:03:29.154Z,975.99
2019-01-18T07:05:33.291Z,976.05
2019-01-18T07:06:33.521Z,976.06
2019-01-18T07:08:37.690Z,976.03
2019-01-18T07:09:37.926Z,976.08
2019-01-18T07:11:42.066Z,976.13
2019-01-18T07:12:42.292Z,976.17
2019-01-18T07:14:46.452Z,976.24
2019-01-18T07:15:46.688Z,976.24
2019-01-18T07:17:50.845Z,976.30
2019-01-18T07:18:51.075Z,976.37
2019-01-18T07:20:55.210Z,976.38
2019-01-18T07:21:55.446Z,976.40
2019-01-18T07:23:59.608Z,976.39
2019-01-18T07:24:59.838Z,976.39
2019-01-18T07:27:03.980Z,976.39
2019-01-18T07:28:04.212Z,976.43
2019-01-18T07:30:08.370Z,976.58
2019-01-18T07:31:14.967Z,976.76
2019-01-18T07:33:12.759Z,977.33
2019-01-18T07:34:12.993Z,977.39
2019-01-18T07:36:06.065Z,977.06
2019-01-18T07:37:06.296Z,976.80
2019-01-18T07:39:10.461Z,977.02
2019-01-18T07:40:10.692Z,977.57
2019-01-18T07:42:14.833Z,978.17
2019-01-18T07:43:15.069Z,978.07
2019-01-18T07:45:19.232Z,977.17
2019-01-18T07:46:19.467Z,977.06
2019-01-18T07:48:23.641Z,976.95
2019-01-18T07:49:23.876Z,976.94
2019-01-18T07:51:28.016Z,976.93
2019-01-18T07:52:28.248Z,976.92
2019-01-18T07:54:32.415Z,976.98
2019-01-18T07:55:32.646Z,977.01
2019-01-18T07:57:36.798Z,977.55
2019-01-18T07:58:37.020Z,977.87
2019-01-18T08:00:41.187Z,978.53
2019-01-18T08:01:41.421Z,979.88
2019-01-18T08:03:45.603Z,980.80
2019-01-18T08:04:45.832Z,980.91
2019-01-18T08:06:49.987Z,981.65
2019-01-18T08:07:50.223Z,981.87
2019-01-18T08:09:54.386Z,982.37
2019-01-18T08:10:54.627Z,982.21
2019-01-18T08:12:58.773Z,982.92
2019-01-18T08:13:59.011Z,983.29
2019-01-18T08:15:52.109Z,983.39
2019-01-18T08:16:52.346Z,983.66
2019-01-18T08:18:56.533Z,983.88
2019-01-18T08:19:56.768Z,983.97
2019-01-18T08:22:00.921Z,984.05
2019-01-18T08:23:01.160Z,984.10
2019-01-18T08:25:05.330Z,984.40
2019-01-18T08:26:05.565Z,984.45
2019-01-18T08:28:09.720Z,984.22
2019-01-18T08:29:09.953Z,984.52
2019-01-18T08:31:14.126Z,985.49
2019-01-18T08:32:14.363Z,985.57
2019-01-18T08:34:18.538Z,985.85
2019-01-18T08:35:18.782Z,986.05
2019-01-18T08:37:22.956Z,986.04
2019-01-18T08:38:23.195Z,985.81
2019-01-18T08:40:27.377Z,985.65
2019-01-18T08:41:27.629Z,985.54
2019-01-18T08:43:31.773Z,985.44
2019-01-18T08:44:32.014Z,985.07
2019-01-18T08:46:25.122Z,984.95
2019-01-18T08:47:25.365Z,984.95
2019-01-18T08:49:29.525Z,984.62
2019-01-18T08:50:29.768Z,984.49
2019-01-18T08:52:33.947Z,984.17
2019-01-18T08:53:34.190Z,984.00
2019-01-18T08:55:38.376Z,983.45
2019-01-18T08:56:38.627Z,983.33
2019-01-18T08:58:42.785Z,982.91
2019-01-18T08:59:43.030Z,982.88
2019-01-18T09:01:47.212Z,982.44
2019-01-18T09:02:47.457Z,982.52
2019-01-18T09:04:51.659Z,982.15
2019-01-18T09:05:51.905Z,982.06
2019-01-18T09:07:56.075Z,981.78
2019-01-18T09:08:56.319Z,981.72
2019-01-18T09:11:00.508Z,979.81
2019-01-18T09:12:00.753Z,979.55
2019-01-18T09:14:04.928Z,979.47
2019-01-18T09:15:05.179Z,979.39
2019-01-18T09:17:09.375Z,979.42
2019-01-18T09:18:09.619Z,979.21
2019-01-18T09:20:13.829Z,979.48
2019-01-18T09:21:14.075Z,979.58
2019-01-18T09:23:18.251Z,979.56
2019-01-18T09:24:18.498Z,979.54
2019-01-18T09:26:11.618Z,979.58
2019-01-18T09:27:11.866Z,979.52
2019-01-18T09:29:16.047Z,979.58
2019-01-18T09:30:16.294Z,979.56
2019-01-18T09:32:20.487Z,979.58
2019-01-18T09:33:20.797Z,979.62
2019-01-18T09:35:24.948Z,979.60
2019-01-18T09:36:25.199Z,979.58
2019-01-18T09:38:29.371Z,979.51
2019-01-18T09:39:29.620Z,979.71
2019-01-18T09:41:33.818Z,980.58
2019-01-18T09:42:34.068Z,980.59
2019-01-18T09:44:38.245Z,980.54
2019-01-18T09:45:38.496Z,980.50
2019-01-18T09:47:42.692Z,980.49
2019-01-18T09:48:42.943Z,980.48
2019-01-18T09:50:47.140Z,980.44
2019-01-18T09:51:47.392Z,980.43
2019-01-18T09:53:51.570Z,980.36
2019-01-18T09:54:51.822Z,980.33
2019-01-18T09:56:56.029Z,980.22
2019-01-18T09:57:56.276Z,980.07
2019-01-18T10:00:00.453Z,980.17
2019-01-18T10:01:00.705Z,980.14
2019-01-18T10:03:04.910Z,980.05
2019-01-18T10:04:05.160Z,980.05
2019-01-18T10:05:58.297Z,980.01
2019-01-18T10:06:58.552Z,979.97
2019-01-18T10:09:02.727Z,980.02
2019-01-18T10:10:02.980Z,980.01
2019-01-18T10:12:07.183Z,979.98
2019-01-18T10:13:07.437Z,980.00
2019-01-18T10:15:11.626Z,980.00
2019-01-18T10:16:11.877Z,979.98
2019-01-18T10:18:17.088Z,980.03
2019-01-18T10:19:17.338Z,980.05
2019-01-18T10:21:21.543Z,980.11
2019-01-18T10:22:21.792Z,980.09
2019-01-18T10:24:25.972Z,980.04
2019-01-18T10:25:26.221Z,980.01
2019-01-18T10:27:30.420Z,980.02
2019-01-18T10:28:30.674Z,980.01
2019-01-18T10:30:34.852Z,980.03
2019-01-18T10:31:35.103Z,980.00
2019-01-18T10:33:39.306Z,980.01
2019-01-18T10:34:39.562Z,979.99
2019-01-18T10:36:43.773Z,980.01
2019-01-18T10:37:44.025Z,979.99
2019-01-18T10:39:48.205Z,980.04
2019-01-18T10:40:48.457Z,980.09
2019-01-18T10:42:52.664Z,980.05
2019-01-18T10:43:52.914Z,980.05
2019-01-18T10:45:46.027Z,980.03
2019-01-18T10:46:46.279Z,980.04
2019-01-18T10:48:50.488Z,980.04
2019-01-18T10:49:50.739Z,980.02
2019-01-18T10:51:54.929Z,980.08
2019-01-18T10:52:55.180Z,980.09
2019-01-18T10:54:59.383Z,980.12
2019-01-18T10:55:59.636Z,980.11
2019-01-18T10:58:03.837Z,980.10
2019-01-18T10:59:04.088Z,980.09
2019-01-18T11:01:08.266Z,980.10
2019-01-18T11:02:08.523Z,980.11
2019-01-18T11:04:12.730Z,980.06
2019-01-18T11:05:12.977Z,980.09
2019-01-18T11:07:17.182Z,980.12
2019-01-18T11:08:17.704Z,980.09
2019-01-18T11:10:21.639Z,980.09
2019-01-18T11:11:21.893Z,980.08
2019-01-18T11:13:26.106Z,980.13
2019-01-18T11:14:26.355Z,980.11
2019-01-18T11:16:19.467Z,980.10
2019-01-18T11:17:19.719Z,980.08
2019-01-18T11:19:23.926Z,980.03
2019-01-18T11:20:24.179Z,980.08
2019-01-18T11:22:28.362Z,980.00
2019-01-18T11:23:28.616Z,980.01
2019-01-18T11:25:32.816Z,980.00
2019-01-18T11:26:33.069Z,979.99
2019-01-18T11:28:37.273Z,980.00
2019-01-18T11:29:37.527Z,980.00
2019-01-18T11:31:41.714Z,979.96
2019-01-18T11:32:41.967Z,979.94
2019-01-18T11:34:46.173Z,979.89
2019-01-18T11:35:46.430Z,979.91
2019-01-18T11:37:50.719Z,979.90
2019-01-18T11:38:50.959Z,979.91
2019-01-18T11:40:55.169Z,979.86
2019-01-18T11:41:55.422Z,979.91
2019-01-18T11:43:59.631Z,979.89
2019-01-18T11:44:59.885Z,979.88
2019-01-18T11:47:04.066Z,979.88
2019-01-18T11:48:04.320Z,979.84
2019-01-18T11:50:08.522Z,979.82
2019-01-18T11:51:08.778Z,979.77
2019-01-18T11:53:13.014Z,979.66
2019-01-18T11:54:13.263Z,979.67
2019-01-18T11:56:06.398Z,979.70
2019-01-18T11:57:06.652Z,979.72
2019-01-18T11:59:10.855Z,979.74
2019-01-18T12:00:11.143Z,979.72
2019-01-18T12:02:21.932Z,979.74
2019-01-18T12:03:15.576Z,979.79
2019-01-18T12:05:19.790Z,979.78
2019-01-18T12:06:20.039Z,979.77
2019-01-18T12:08:24.218Z,979.81
2019-01-18T12:09:24.470Z,979.79
2019-01-18T12:11:28.665Z,979.79
2019-01-18T12:12:28.919Z,979.78
2019-01-18T12:14:33.121Z,979.78
2019-01-18T12:15:33.373Z,979.82
2019-01-18T12:17:37.613Z,979.83
2019-01-18T12:18:38.030Z,979.84
2019-01-18T12:20:42.232Z,979.86
2019-01-18T12:21:42.485Z,979.85
2019-01-18T12:23:46.779Z,979.85
2019-01-18T12:24:47.048Z,979.82
2019-01-18T12:26:51.223Z,979.77
2019-01-18T12:27:51.630Z,979.78
2019-01-18T12:29:56.033Z,979.77
2019-01-18T12:30:56.157Z,979.77
2019-01-18T12:33:00.378Z,979.78
2019-01-18T12:34:00.629Z,979.75
2019-01-18T12:35:53.862Z,979.81
2019-01-18T12:36:58.887Z,979.78
2019-01-18T12:38:58.785Z,979.72
2019-01-18T12:39:58.787Z,979.68
2019-01-18T12:42:02.982Z,979.71
2019-01-18T12:43:03.308Z,979.67
2019-01-18T12:45:07.677Z,979.63
2019-01-18T12:46:07.697Z,979.59
2019-01-18T12:48:11.876Z,979.59
2019-01-18T12:49:12.257Z,979.60
2019-01-18T12:51:16.493Z,979.56
2019-01-18T12:52:16.747Z,979.57
2019-01-18T12:54:20.956Z,979.54
2019-01-18T12:55:21.211Z,979.53
2019-01-18T12:57:25.431Z,979.51
2019-01-18T12:58:25.679Z,979.53
2019-01-18T13:00:29.884Z,979.50
2019-01-18T13:01:30.134Z,979.50
2019-01-18T13:03:34.477Z,979.50
2019-01-18T13:04:34.800Z,979.52
2019-01-18T13:06:27.962Z,979.56
2019-01-18T13:07:28.308Z,979.55
2019-01-18T13:09:32.654Z,979.56
2019-01-18T13:10:33.020Z,979.55
2019-01-18T13:12:37.199Z,979.56
2019-01-18T13:13:37.452Z,979.57
2019-01-18T13:15:41.667Z,979.52
2019-01-18T13:16:41.920Z,979.49
2019-01-18T13:18:46.137Z,979.47
2019-01-18T13:19:46.390Z,979.45
2019-01-18T13:21:50.590Z,979.46
2019-01-18T13:22:50.951Z,979.42
2019-01-18T13:24:55.181Z,979.37
2019-01-18T13:25:55.433Z,979.40
2019-01-18T13:28:00.003Z,979.36
2019-01-18T13:28:59.869Z,979.33
2019-01-18T13:31:04.071Z,979.34
2019-01-18T13:32:04.323Z,979.32
2019-01-18T13:34:08.504Z,979.33
2019-01-18T13:35:08.761Z,979.37
2019-01-18T13:37:12.970Z,979.34
2019-01-18T13:38:13.218Z,979.33
2019-01-18T13:40:18.426Z,979.34
2019-01-18T13:41:18.677Z,979.33
2019-01-18T13:43:22.852Z,979.30
2019-01-18T13:44:23.105Z,979.32
2019-01-18T13:46:16.238Z,979.30
2019-01-18T13:47:18.586Z,979.33
2019-01-18T13:49:20.661Z,979.32
2019-01-18T13:50:20.911Z,979.37
2019-01-18T13:52:25.125Z,979.36
2019-01-18T13:53:25.376Z,979.40
2019-01-18T13:55:29.872Z,979.34
2019-01-18T13:56:29.876Z,979.33
2019-01-18T13:58:34.055Z,979.37
2019-01-18T13:59:34.305Z,979.32
2019-01-18T14:01:38.510Z,979.36
2019-01-18T14:02:40.583Z,979.36
2019-01-18T14:04:44.524Z,979.39
2019-01-18T14:05:44.773Z,979.39
2019-01-18T14:07:53.237Z,979.40
2019-01-18T14:08:49.221Z,979.38
2019-01-18T14:10:53.426Z,979.37
2019-01-18T14:11:55.851Z,979.35
2019-01-18T14:13:58.872Z,979.36
2019-01-18T14:14:59.122Z,979.32
2019-01-18T14:17:03.323Z,979.34
2019-01-18T14:18:03.576Z,979.32
2019-01-18T14:20:07.750Z,979.33
2019-01-18T14:21:07.998Z,979.33
2019-01-18T14:23:12.198Z,979.29
2019-01-18T14:24:12.445Z,979.31
2019-01-18T14:26:05.546Z,979.29
2019-01-18T14:27:05.796Z,979.30
2019-01-18T14:29:09.994Z,979.33
2019-01-18T14:30:10.245Z,979.29
2019-01-18T14:32:14.443Z,979.25
2019-01-18T14:33:14.688Z,979.31
2019-01-18T14:35:18.860Z,979.23
2019-01-18T14:36:19.112Z,979.21
2019-01-18T14:38:25.213Z,979.23
2019-01-18T14:39:23.558Z,979.24
2019-01-18T14:41:31.124Z,979.21
2019-01-18T14:42:27.989Z,979.17
2019-01-18T14:44:32.184Z,979.14
2019-01-18T14:45:32.433Z,979.17
2019-01-18T14:47:36.631Z,979.15
2019-01-18T14:48:36.876Z,979.18
2019-01-18T14:50:41.062Z,979.16
2019-01-18T14:51:41.309Z,979.10
2019-01-18T14:53:45.508Z,979.11
2019-01-18T14:54:45.755Z,979.12
2019-01-18T14:56:49.928Z,979.19
2019-01-18T14:57:50.170Z,979.17
2019-01-18T14:59:54.360Z,979.17
2019-01-18T15:00:54.606Z,979.19
2019-01-18T15:03:02.374Z,979.17
2019-01-18T15:03:59.042Z,979.13
2019-01-18T15:05:52.140Z,979.09
2019-01-18T15:06:52.388Z,979.09
2019-01-18T15:08:56.590Z,979.10
2019-01-18T15:09:57.654Z,979.11
2019-01-18T15:12:01.014Z,979.08
2019-01-18T15:13:01.259Z,979.10
2019-01-18T15:15:05.458Z,979.04
2019-01-18T15:16:05.706Z,978.99
2019-01-18T15:18:09.891Z,979.03
2019-01-18T15:19:10.129Z,979.04
2019-01-18T15:21:14.296Z,979.04
2019-01-18T15:22:14.541Z,979.06
2019-01-18T15:24:18.729Z,979.00
2019-01-18T15:25:18.971Z,979.01
2019-01-18T15:27:23.134Z,978.95
2019-01-18T15:28:23.377Z,978.95
2019-01-18T15:30:27.561Z,978.90
2019-01-18T15:31:27.792Z,978.93
2019-01-18T15:33:31.985Z,978.96
2019-01-18T15:34:32.230Z,978.92
2019-01-18T15:36:25.311Z,978.91
2019-01-18T15:37:25.548Z,978.89
2019-01-18T15:39:29.723Z,978.89
2019-01-18T15:40:29.967Z,978.89
2019-01-18T15:42:34.123Z,978.90
2019-01-18T15:43:34.364Z,978.91
2019-01-18T15:45:38.542Z,978.87
2019-01-18T15:46:38.781Z,978.90
2019-01-18T15:48:42.969Z,978.87
2019-01-18T15:49:43.207Z,978.88
2019-01-18T15:51:47.365Z,978.84
2019-01-18T15:52:47.603Z,978.84
2019-01-18T15:54:51.781Z,978.87
2019-01-18T15:55:52.021Z,978.88
2019-01-18T15:57:56.174Z,978.90
2019-01-18T15:58:56.415Z,978.93
2019-01-18T16:01:00.587Z,978.96
2019-01-18T16:02:00.827Z,978.92
2019-01-18T16:04:05.005Z,979.01
2019-01-18T16:05:06.471Z,978.95
2019-01-18T16:07:09.410Z,979.00
2019-01-18T16:08:09.644Z,979.00
2019-01-18T16:10:13.819Z,979.04
2019-01-18T16:11:14.055Z,979.00
2019-01-18T16:13:18.209Z,979.06
2019-01-18T16:14:18.445Z,979.08
2019-01-18T16:16:11.540Z,979.11
2019-01-18T16:17:11.777Z,979.15
2019-01-18T16:19:16.933Z,979.14
2019-01-18T16:20:17.169Z,979.09
2019-01-18T16:22:21.335Z,979.07
2019-01-18T16:23:21.576Z,979.07
2019-01-18T16:25:25.742Z,979.03
2019-01-18T16:26:25.983Z,979.03
2019-01-18T16:28:30.135Z,979.05
2019-01-18T16:29:30.371Z,979.13
2019-01-18T16:31:34.538Z,979.11
2019-01-18T16:32:34.779Z,979.12
2019-01-18T16:34:38.924Z,979.07
2019-01-18T16:35:39.160Z,979.05
2019-01-18T16:37:43.328Z,979.07
2019-01-18T16:38:43.573Z,979.08
2019-01-18T16:40:47.734Z,979.03
2019-01-18T16:41:47.971Z,979.09
2019-01-18T16:43:52.116Z,979.04
2019-01-18T16:44:52.401Z,979.08
2019-01-18T16:46:57.525Z,979.06
2019-01-18T16:47:57.764Z,979.09
2019-01-18T16:50:01.975Z,979.08
2019-01-18T16:51:02.211Z,979.11
2019-01-18T16:53:06.361Z,979.08
2019-01-18T16:54:06.595Z,979.07
2019-01-18T16:55:59.690Z,979.07
2019-01-18T16:56:59.929Z,979.09
2019-01-18T16:59:04.072Z,979.09
2019-01-18T17:00:04.308Z,979.10
2019-01-18T17:02:08.479Z,979.10
2019-01-18T17:03:08.714Z,979.11
2019-01-18T17:05:13.915Z,979.11
2019-01-18T17:06:14.148Z,979.13
2019-01-18T17:08:18.321Z,979.06
2019-01-18T17:09:18.554Z,979.08
2019-01-18T17:11:22.726Z,979.06
2019-01-18T17:12:22.959Z,978.99
2019-01-18T17:14:27.101Z,978.98
2019-01-18T17:15:27.340Z,979.00
2019-01-18T17:17:31.507Z,979.06
2019-01-18T17:18:31.739Z,979.02
2019-01-18T17:20:35.900Z,979.02
2019-01-18T17:21:36.139Z,979.04
2019-01-18T17:23:40.281Z,978.97
2019-01-18T17:24:40.516Z,978.99
2019-01-18T17:26:44.688Z,979.03
2019-01-18T17:27:44.923Z,979.03
2019-01-18T17:29:49.069Z,979.04
2019-01-18T17:30:49.306Z,979.04
2019-01-18T17:32:53.501Z,979.06
2019-01-18T17:33:53.737Z,979.02
2019-01-18T17:35:46.812Z,979.02
2019-01-18T17:36:47.050Z,979.01
2019-01-18T17:38:51.329Z,978.99
2019-01-18T17:39:51.569Z,979.01
2019-01-18T17:41:55.738Z,979.07
2019-01-18T17:42:56.037Z,979.08
2019-01-18T17:45:00.186Z,979.09
2019-01-18T17:46:00.488Z,979.11
2019-01-18T17:48:04.657Z,979.14
2019-01-18T17:49:04.889Z,979.16
2019-01-18T17:51:09.387Z,979.14
2019-01-18T17:52:09.281Z,979.12
2019-01-18T17:54:13.444Z,979.16
2019-01-18T17:55:13.675Z,979.16
2019-01-18T17:57:29.195Z,979.16
2019-01-18T17:58:29.427Z,979.17
2019-01-18T18:00:33.562Z,979.13
2019-01-18T18:01:33.795Z,979.13
2019-01-18T18:03:43.494Z,979.14
2019-01-18T18:04:38.192Z,979.14
2019-01-18T18:06:42.380Z,979.15
2019-01-18T18:07:42.620Z,979.17
2019-01-18T18:09:46.776Z,979.18
2019-01-18T18:10:47.009Z,979.19
2019-01-18T18:12:52.223Z,979.15
2019-01-18T18:13:52.452Z,979.12
2019-01-18T18:15:45.522Z,979.15
2019-01-18T18:16:45.751Z,979.12
2019-01-18T18:18:50.923Z,979.15
2019-01-18T18:19:51.165Z,979.14
2019-01-18T18:21:55.296Z,979.20
2019-01-18T18:22:55.520Z,979.13
2019-01-18T18:24:59.687Z,979.18
2019-01-18T18:25:59.917Z,979.20
2019-01-18T18:28:04.568Z,979.19
2019-01-18T18:29:04.799Z,979.26
2019-01-18T18:31:08.938Z,979.21
2019-01-18T18:32:09.233Z,979.22
2019-01-18T18:34:13.417Z,979.20
2019-01-18T18:35:13.647Z,979.23
2019-01-18T18:37:17.786Z,979.22
2019-01-18T18:38:18.015Z,979.20
2019-01-18T18:40:22.181Z,979.21
2019-01-18T18:41:22.413Z,979.24
2019-01-18T18:43:26.584Z,979.21
2019-01-18T18:44:26.815Z,979.20
2019-01-18T18:46:19.882Z,979.22
2019-01-18T18:47:20.191Z,979.22
2019-01-18T18:49:24.361Z,979.26
2019-01-18T18:50:24.652Z,979.31
2019-01-18T18:52:28.799Z,979.28
2019-01-18T18:53:29.031Z,979.30
2019-01-18T18:55:33.195Z,979.24
2019-01-18T18:56:33.426Z,979.23
2019-01-18T18:58:37.585Z,979.22
2019-01-18T18:59:37.830Z,979.21
2019-01-18T19:01:41.973Z,979.22
2019-01-18T19:02:42.207Z,979.19
2019-01-18T19:04:46.369Z,979.20